Victoria, United Kingdom
Current Conditions -  °F | °C
As of 10:50 PM on Tuesday 21 Oct 2014 (Local Time) from EGFF Reporting Station
Clear Clear  
Wind Chill: 42°   Ceiling: Unl
Heat Index: 48°   Visibility: 6mi
Dew Point: 39°   Wind: 15mph
Humidity: 71%   Direction: 300°WNW
Pressure: 30.21"   Gusts: NA
Location:  51.75°N, 3.2°W
Report Text: EGFF 212150Z AUTO 30013KT 9999 NCD 09/04 Q1023
Loading
Personal Weather Stations






























Interactive Weather Map
Tropical Storm Tracking
New forecast layout! Learn more

10-Day Weather Forecast

Advertisements
Track Severe Weather on mobile